sensor_id;sensor_type;location;lat;lon;timestamp;P1;durP1;ratioP1;P2;durP2;ratioP2
34920;SDS011;21128;50.016;20.002;2024-01-30T00:00:02;62.60;;;34.20;;
34920;SDS011;21128;50.016;20.002;2024-01-30T00:02:31;64.80;;;34.20;;
34920;SDS011;21128;50.016;20.002;2024-01-30T00:04:58;64.50;;;34.50;;
34920;SDS011;21128;50.016;20.002;2024-01-30T00:07:25;65.30;;;34.50;;
34920;SDS011;21128;50.016;20.002;2024-01-30T00:09:52;66.10;;;34.30;;
34920;SDS011;21128;50.016;20.002;2024-01-30T00:12:19;71.50;;;35.60;;
34920;SDS011;21128;50.016;20.002;2024-01-30T00:14:45;68.60;;;36.40;;
34920;SDS011;21128;50.016;20.002;2024-01-30T00:17:12;60.10;;;32.40;;
34920;SDS011;21128;50.016;20.002;2024-01-30T00:19:39;58.50;;;33.40;;
34920;SDS011;21128;50.016;20.002;2024-01-30T00:22:05;67.20;;;35.60;;
34920;SDS011;21128;50.016;20.002;2024-01-30T00:24:33;66.20;;;36.40;;
34920;SDS011;21128;50.016;20.002;2024-01-30T00:26:59;59.70;;;31.60;;
34920;SDS011;21128;50.016;20.002;2024-01-30T00:29:26;63.60;;;34.30;;
34920;SDS011;21128;50.016;20.002;2024-01-30T00:31:56;66.50;;;35.10;;
34920;SDS011;21128;50.016;20.002;2024-01-30T00:34:23;67.80;;;35.40;;
34920;SDS011;21128;50.016;20.002;2024-01-30T00:36:50;68.00;;;37.10;;
34920;SDS011;21128;50.016;20.002;2024-01-30T00:39:17;73.90;;;37.40;;
34920;SDS011;21128;50.016;20.002;2024-01-30T00:41:45;68.70;;;36.80;;
34920;SDS011;21128;50.016;20.002;2024-01-30T00:44:12;73.00;;;37.50;;
34920;SDS011;21128;50.016;20.002;2024-01-30T00:46:39;65.20;;;37.20;;
34920;SDS011;21128;50.016;20.002;2024-01-30T00:49:06;74.60;;;40.40;;
34920;SDS011;21128;50.016;20.002;2024-01-30T00:51:32;68.90;;;38.30;;
34920;SDS011;21128;50.016;20.002;2024-01-30T00:53:59;72.90;;;38.40;;
34920;SDS011;21128;50.016;20.002;2024-01-30T00:56:26;82.40;;;43.80;;
34920;SDS011;21128;50.016;20.002;2024-01-30T00:58:53;82.50;;;42.80;;
34920;SDS011;21128;50.016;20.002;2024-01-30T01:01:20;77.90;;;40.20;;
34920;SDS011;21128;50.016;20.002;2024-01-30T01:03:46;79.70;;;42.70;;
34920;SDS011;21128;50.016;20.002;2024-01-30T01:06:14;75.10;;;38.10;;
34920;SDS011;21128;50.016;20.002;2024-01-30T01:08:41;67.60;;;36.60;;
34920;SDS011;21128;50.016;20.002;2024-01-30T01:11:08;72.60;;;39.00;;
34920;SDS011;21128;50.016;20.002;2024-01-30T01:13:34;77.50;;;40.60;;
34920;SDS011;21128;50.016;20.002;2024-01-30T01:16:01;78.40;;;42.40;;
34920;SDS011;21128;50.016;20.002;2024-01-30T01:18:28;75.00;;;40.90;;
34920;SDS011;21128;50.016;20.002;2024-01-30T01:20:54;83.50;;;43.60;;
34920;SDS011;21128;50.016;20.002;2024-01-30T01:23:22;83.70;;;42.80;;
34920;SDS011;21128;50.016;20.002;2024-01-30T01:25:48;83.30;;;43.80;;
34920;SDS011;21128;50.016;20.002;2024-01-30T01:28:15;83.10;;;46.20;;
34920;SDS011;21128;50.016;20.002;2024-01-30T01:30:42;88.20;;;44.30;;
34920;SDS011;21128;50.016;20.002;2024-01-30T01:33:08;81.40;;;43.80;;
34920;SDS011;21128;50.016;20.002;2024-01-30T01:35:39;79.90;;;42.60;;
34920;SDS011;21128;50.016;20.002;2024-01-30T01:38:09;92.00;;;46.20;;
34920;SDS011;21128;50.016;20.002;2024-01-30T01:40:36;88.40;;;48.90;;
34920;SDS011;21128;50.016;20.002;2024-01-30T01:43:03;80.20;;;45.30;;
34920;SDS011;21128;50.016;20.002;2024-01-30T01:45:31;86.70;;;45.40;;
34920;SDS011;21128;50.016;20.002;2024-01-30T01:47:58;79.10;;;44.90;;
34920;SDS011;21128;50.016;20.002;2024-01-30T01:50:25;84.60;;;45.20;;
34920;SDS011;21128;50.016;20.002;2024-01-30T01:52:52;81.80;;;46.20;;
34920;SDS011;21128;50.016;20.002;2024-01-30T01:55:21;82.60;;;46.00;;
34920;SDS011;21128;50.016;20.002;2024-01-30T01:57:48;80.80;;;45.20;;
34920;SDS011;21128;50.016;20.002;2024-01-30T02:00:15;83.00;;;46.50;;
34920;SDS011;21128;50.016;20.002;2024-01-30T02:02:43;83.60;;;45.70;;
34920;SDS011;21128;50.016;20.002;2024-01-30T02:05:11;82.90;;;45.50;;
34920;SDS011;21128;50.016;20.002;2024-01-30T02:07:38;75.20;;;42.00;;
34920;SDS011;21128;50.016;20.002;2024-01-30T02:10:07;79.00;;;42.80;;
34920;SDS011;21128;50.016;20.002;2024-01-30T02:12:36;80.50;;;41.90;;
34920;SDS011;21128;50.016;20.002;2024-01-30T02:15:03;81.50;;;43.40;;
34920;SDS011;21128;50.016;20.002;2024-01-30T02:17:31;82.90;;;44.40;;
34920;SDS011;21128;50.016;20.002;2024-01-30T02:19:58;79.80;;;44.70;;
34920;SDS011;21128;50.016;20.002;2024-01-30T02:22:25;82.50;;;45.00;;
34920;SDS011;21128;50.016;20.002;2024-01-30T02:24:52;84.40;;;45.20;;
34920;SDS011;21128;50.016;20.002;2024-01-30T02:27:19;82.50;;;44.80;;
34920;SDS011;21128;50.016;20.002;2024-01-30T02:29:45;75.90;;;43.10;;
34920;SDS011;21128;50.016;20.002;2024-01-30T02:32:12;83.70;;;44.80;;
34920;SDS011;21128;50.016;20.002;2024-01-30T02:34:39;77.90;;;43.40;;
34920;SDS011;21128;50.016;20.002;2024-01-30T02:37:06;79.70;;;43.30;;
34920;SDS011;21128;50.016;20.002;2024-01-30T02:39:32;83.30;;;43.70;;
34920;SDS011;21128;50.016;20.002;2024-01-30T02:41:59;77.70;;;43.80;;
34920;SDS011;21128;50.016;20.002;2024-01-30T02:44:29;86.10;;;46.70;;
34920;SDS011;21128;50.016;20.002;2024-01-30T02:46:55;80.20;;;43.50;;
34920;SDS011;21128;50.016;20.002;2024-01-30T02:49:23;73.70;;;42.40;;
34920;SDS011;21128;50.016;20.002;2024-01-30T02:51:53;85.30;;;42.70;;
34920;SDS011;21128;50.016;20.002;2024-01-30T02:54:21;78.50;;;40.90;;
34920;SDS011;21128;50.016;20.002;2024-01-30T02:56:50;82.30;;;42.30;;
34920;SDS011;21128;50.016;20.002;2024-01-30T02:59:17;77.40;;;42.50;;
34920;SDS011;21128;50.016;20.002;2024-01-30T03:01:47;83.20;;;42.80;;
34920;SDS011;21128;50.016;20.002;2024-01-30T03:04:17;73.70;;;40.40;;
34920;SDS011;21128;50.016;20.002;2024-01-30T03:06:46;80.70;;;42.30;;
34920;SDS011;21128;50.016;20.002;2024-01-30T03:09:15;82.20;;;41.50;;
34920;SDS011;21128;50.016;20.002;2024-01-30T03:11:43;80.60;;;41.50;;
34920;SDS011;21128;50.016;20.002;2024-01-30T03:14:09;80.30;;;42.00;;
34920;SDS011;21128;50.016;20.002;2024-01-30T03:16:39;74.20;;;41.70;;
34920;SDS011;21128;50.016;20.002;2024-01-30T03:19:06;81.80;;;42.40;;
34920;SDS011;21128;50.016;20.002;2024-01-30T03:21:36;77.80;;;44.90;;
34920;SDS011;21128;50.016;20.002;2024-01-30T03:24:03;78.30;;;43.50;;
34920;SDS011;21128;50.016;20.002;2024-01-30T03:26:30;79.80;;;42.30;;
34920;SDS011;21128;50.016;20.002;2024-01-30T03:28:56;77.60;;;43.60;;
34920;SDS011;21128;50.016;20.002;2024-01-30T03:31:26;84.40;;;42.40;;
34920;SDS011;21128;50.016;20.002;2024-01-30T03:33:55;73.40;;;39.80;;
34920;SDS011;21128;50.016;20.002;2024-01-30T03:36:22;82.10;;;44.40;;
34920;SDS011;21128;50.016;20.002;2024-01-30T03:38:48;90.30;;;46.60;;
34920;SDS011;21128;50.016;20.002;2024-01-30T03:41:15;92.40;;;44.40;;
34920;SDS011;21128;50.016;20.002;2024-01-30T03:43:50;78.60;;;42.60;;
34920;SDS011;21128;50.016;20.002;2024-01-30T03:46:19;82.40;;;42.60;;
34920;SDS011;21128;50.016;20.002;2024-01-30T03:48:46;80.30;;;40.90;;
34920;SDS011;21128;50.016;20.002;2024-01-30T03:51:12;67.10;;;39.60;;
34920;SDS011;21128;50.016;20.002;2024-01-30T03:53:41;79.30;;;42.90;;
34920;SDS011;21128;50.016;20.002;2024-01-30T03:56:09;80.90;;;45.50;;
34920;SDS011;21128;50.016;20.002;2024-01-30T03:58:39;82.20;;;44.80;;
34920;SDS011;21128;50.016;20.002;2024-01-30T04:01:05;84.20;;;45.00;;
34920;SDS011;21128;50.016;20.002;2024-01-30T04:03:32;78.50;;;43.40;;
34920;SDS011;21128;50.016;20.002;2024-01-30T04:05:59;76.80;;;42.40;;
34920;SDS011;21128;50.016;20.002;2024-01-30T04:08:25;80.80;;;43.20;;
34920;SDS011;21128;50.016;20.002;2024-01-30T04:10:53;82.80;;;44.00;;
34920;SDS011;21128;50.016;20.002;2024-01-30T04:13:19;87.30;;;45.90;;
34920;SDS011;21128;50.016;20.002;2024-01-30T04:15:46;92.00;;;47.70;;
34920;SDS011;21128;50.016;20.002;2024-01-30T04:18:13;96.90;;;51.50;;
34920;SDS011;21128;50.016;20.002;2024-01-30T04:20:39;92.60;;;49.30;;
34920;SDS011;21128;50.016;20.002;2024-01-30T04:23:06;91.00;;;50.00;;
34920;SDS011;21128;50.016;20.002;2024-01-30T04:25:33;95.00;;;49.10;;
34920;SDS011;21128;50.016;20.002;2024-01-30T04:27:59;88.30;;;47.10;;
34920;SDS011;21128;50.016;20.002;2024-01-30T04:30:26;95.70;;;49.70;;
34920;SDS011;21128;50.016;20.002;2024-01-30T04:32:53;93.90;;;51.00;;
34920;SDS011;21128;50.016;20.002;2024-01-30T04:35:19;98.90;;;51.90;;
34920;SDS011;21128;50.016;20.002;2024-01-30T04:37:49;101.30;;;52.30;;
34920;SDS011;21128;50.016;20.002;2024-01-30T04:40:16;93.50;;;52.80;;
34920;SDS011;21128;50.016;20.002;2024-01-30T04:42:43;97.90;;;53.50;;
34920;SDS011;21128;50.016;20.002;2024-01-30T04:45:10;98.40;;;52.90;;
34920;SDS011;21128;50.016;20.002;2024-01-30T04:47:36;93.30;;;48.90;;
34920;SDS011;21128;50.016;20.002;2024-01-30T04:50:03;91.90;;;48.00;;
34920;SDS011;21128;50.016;20.002;2024-01-30T04:52:31;90.10;;;47.90;;
34920;SDS011;21128;50.016;20.002;2024-01-30T04:54:58;88.00;;;49.50;;
34920;SDS011;21128;50.016;20.002;2024-01-30T04:57:25;90.80;;;47.80;;
34920;SDS011;21128;50.016;20.002;2024-01-30T04:59:51;84.50;;;48.20;;
34920;SDS011;21128;50.016;20.002;2024-01-30T05:02:18;80.90;;;45.20;;
34920;SDS011;21128;50.016;20.002;2024-01-30T05:04:45;92.90;;;47.20;;
34920;SDS011;21128;50.016;20.002;2024-01-30T05:07:12;92.80;;;48.60;;
34920;SDS011;21128;50.016;20.002;2024-01-30T05:09:38;95.90;;;52.00;;
34920;SDS011;21128;50.016;20.002;2024-01-30T05:12:06;96.30;;;49.90;;
34920;SDS011;21128;50.016;20.002;2024-01-30T05:14:33;92.90;;;49.60;;
34920;SDS011;21128;50.016;20.002;2024-01-30T05:17:00;96.70;;;50.40;;
34920;SDS011;21128;50.016;20.002;2024-01-30T05:19:27;88.10;;;47.40;;
34920;SDS011;21128;50.016;20.002;2024-01-30T05:21:53;89.60;;;48.80;;
34920;SDS011;21128;50.016;20.002;2024-01-30T05:24:20;90.70;;;47.50;;
34920;SDS011;21128;50.016;20.002;2024-01-30T05:26:47;85.60;;;46.00;;
34920;SDS011;21128;50.016;20.002;2024-01-30T05:29:14;95.30;;;49.90;;
34920;SDS011;21128;50.016;20.002;2024-01-30T05:31:41;96.30;;;50.70;;
34920;SDS011;21128;50.016;20.002;2024-01-30T05:34:08;91.00;;;49.40;;
34920;SDS011;21128;50.016;20.002;2024-01-30T05:36:35;85.50;;;47.00;;
34920;SDS011;21128;50.016;20.002;2024-01-30T05:39:02;89.20;;;46.40;;
34920;SDS011;21128;50.016;20.002;2024-01-30T05:41:29;81.00;;;46.50;;
34920;SDS011;21128;50.016;20.002;2024-01-30T05:43:55;97.60;;;49.40;;
34920;SDS011;21128;50.016;20.002;2024-01-30T05:46:22;88.30;;;47.60;;
34920;SDS011;21128;50.016;20.002;2024-01-30T05:48:49;87.80;;;46.50;;
34920;SDS011;21128;50.016;20.002;2024-01-30T05:51:15;82.80;;;44.00;;
34920;SDS011;21128;50.016;20.002;2024-01-30T05:53:42;79.30;;;44.90;;
34920;SDS011;21128;50.016;20.002;2024-01-30T05:56:09;79.30;;;45.20;;
34920;SDS011;21128;50.016;20.002;2024-01-30T05:58:35;81.60;;;44.10;;
34920;SDS011;21128;50.016;20.002;2024-01-30T06:01:07;82.70;;;46.30;;
34920;SDS011;21128;50.016;20.002;2024-01-30T06:03:35;87.50;;;46.50;;
34920;SDS011;21128;50.016;20.002;2024-01-30T06:06:02;88.50;;;47.00;;
34920;SDS011;21128;50.016;20.002;2024-01-30T06:08:29;90.50;;;48.30;;
34920;SDS011;21128;50.016;20.002;2024-01-30T06:10:55;86.90;;;46.80;;
34920;SDS011;21128;50.016;20.002;2024-01-30T06:13:22;84.50;;;45.50;;
34920;SDS011;21128;50.016;20.002;2024-01-30T06:15:49;79.90;;;43.10;;
34920;SDS011;21128;50.016;20.002;2024-01-30T06:18:15;77.80;;;42.50;;
34920;SDS011;21128;50.016;20.002;2024-01-30T06:20:42;78.10;;;43.50;;
34920;SDS011;21128;50.016;20.002;2024-01-30T06:23:09;102.30;;;53.90;;
34920;SDS011;21128;50.016;20.002;2024-01-30T06:25:36;82.70;;;43.70;;
34920;SDS011;21128;50.016;20.002;2024-01-30T06:28:03;84.70;;;42.40;;
34920;SDS011;21128;50.016;20.002;2024-01-30T06:30:30;78.70;;;44.30;;
34920;SDS011;21128;50.016;20.002;2024-01-30T06:32:56;91.00;;;43.30;;
34920;SDS011;21128;50.016;20.002;2024-01-30T06:35:23;78.70;;;42.30;;
34920;SDS011;21128;50.016;20.002;2024-01-30T06:37:50;82.10;;;42.80;;
34920;SDS011;21128;50.016;20.002;2024-01-30T06:40:17;83.00;;;45.80;;
34920;SDS011;21128;50.016;20.002;2024-01-30T06:42:43;92.90;;;46.10;;
34920;SDS011;21128;50.016;20.002;2024-01-30T06:45:10;125.80;;;50.10;;
34920;SDS011;21128;50.016;20.002;2024-01-30T06:47:37;114.10;;;50.40;;
34920;SDS011;21128;50.016;20.002;2024-01-30T06:50:03;105.70;;;49.50;;
34920;SDS011;21128;50.016;20.002;2024-01-30T06:52:31;90.50;;;47.30;;
34920;SDS011;21128;50.016;20.002;2024-01-30T06:54:57;85.80;;;44.80;;
34920;SDS011;21128;50.016;20.002;2024-01-30T06:57:24;89.50;;;44.50;;
34920;SDS011;21128;50.016;20.002;2024-01-30T06:59:51;86.90;;;47.10;;
34920;SDS011;21128;50.016;20.002;2024-01-30T07:02:17;81.60;;;44.10;;
34920;SDS011;21128;50.016;20.002;2024-01-30T07:04:44;82.60;;;44.90;;
34920;SDS011;21128;50.016;20.002;2024-01-30T07:07:11;76.60;;;43.50;;
34920;SDS011;21128;50.016;20.002;2024-01-30T07:09:39;80.30;;;44.30;;
34920;SDS011;21128;50.016;20.002;2024-01-30T07:12:06;77.90;;;42.40;;
34920;SDS011;21128;50.016;20.002;2024-01-30T07:14:33;75.50;;;41.20;;
34920;SDS011;21128;50.016;20.002;2024-01-30T07:17:00;71.80;;;41.40;;
34920;SDS011;21128;50.016;20.002;2024-01-30T07:19:28;68.80;;;38.70;;
34920;SDS011;21128;50.016;20.002;2024-01-30T07:21:54;76.80;;;40.60;;
34920;SDS011;21128;50.016;20.002;2024-01-30T07:24:21;70.80;;;38.90;;
34920;SDS011;21128;50.016;20.002;2024-01-30T07:26:48;69.90;;;38.70;;
34920;SDS011;21128;50.016;20.002;2024-01-30T07:29:14;64.80;;;38.20;;
34920;SDS011;21128;50.016;20.002;2024-01-30T07:31:41;69.40;;;39.30;;
34920;SDS011;21128;50.016;20.002;2024-01-30T07:34:08;67.90;;;38.20;;
34920;SDS011;21128;50.016;20.002;2024-01-30T07:36:35;65.40;;;37.90;;
34920;SDS011;21128;50.016;20.002;2024-01-30T07:39:02;68.00;;;38.60;;
34920;SDS011;21128;50.016;20.002;2024-01-30T07:41:29;66.60;;;38.80;;
34920;SDS011;21128;50.016;20.002;2024-01-30T07:44:01;67.20;;;39.70;;
34920;SDS011;21128;50.016;20.002;2024-01-30T07:46:27;66.40;;;40.00;;
34920;SDS011;21128;50.016;20.002;2024-01-30T07:48:54;69.90;;;40.10;;
34920;SDS011;21128;50.016;20.002;2024-01-30T07:51:22;72.10;;;39.60;;
34920;SDS011;21128;50.016;20.002;2024-01-30T07:53:49;74.10;;;39.80;;
34920;SDS011;21128;50.016;20.002;2024-01-30T07:56:15;75.30;;;40.10;;
34920;SDS011;21128;50.016;20.002;2024-01-30T07:58:42;71.00;;;40.70;;
34920;SDS011;21128;50.016;20.002;2024-01-30T08:01:09;64.20;;;38.80;;
34920;SDS011;21128;50.016;20.002;2024-01-30T08:03:35;71.00;;;38.80;;
34920;SDS011;21128;50.016;20.002;2024-01-30T08:06:03;75.10;;;41.70;;
34920;SDS011;21128;50.016;20.002;2024-01-30T08:08:30;66.20;;;39.80;;
34920;SDS011;21128;50.016;20.002;2024-01-30T08:10:57;73.10;;;39.00;;
34920;SDS011;21128;50.016;20.002;2024-01-30T08:13:24;75.00;;;42.00;;
34920;SDS011;21128;50.016;20.002;2024-01-30T08:15:50;69.60;;;39.10;;
34920;SDS011;21128;50.016;20.002;2024-01-30T08:18:17;70.20;;;39.00;;
34920;SDS011;21128;50.016;20.002;2024-01-30T08:20:44;61.70;;;37.20;;
34920;SDS011;21128;50.016;20.002;2024-01-30T08:23:10;71.10;;;40.40;;
34920;SDS011;21128;50.016;20.002;2024-01-30T08:25:37;73.80;;;40.00;;
34920;SDS011;21128;50.016;20.002;2024-01-30T08:28:04;70.10;;;36.80;;
34920;SDS011;21128;50.016;20.002;2024-01-30T08:30:31;71.60;;;38.60;;
34920;SDS011;21128;50.016;20.002;2024-01-30T08:32:57;65.90;;;38.00;;
34920;SDS011;21128;50.016;20.002;2024-01-30T08:35:24;77.50;;;39.40;;
34920;SDS011;21128;50.016;20.002;2024-01-30T08:37:52;64.80;;;38.10;;
34920;SDS011;21128;50.016;20.002;2024-01-30T08:40:20;72.40;;;38.30;;
34920;SDS011;21128;50.016;20.002;2024-01-30T08:42:47;65.90;;;38.20;;
34920;SDS011;21128;50.016;20.002;2024-01-30T08:45:14;65.10;;;37.40;;
34920;SDS011;21128;50.016;20.002;2024-01-30T08:47:40;66.60;;;39.30;;
34920;SDS011;21128;50.016;20.002;2024-01-30T08:50:07;68.50;;;38.80;;
34920;SDS011;21128;50.016;20.002;2024-01-30T08:52:34;71.20;;;39.10;;
34920;SDS011;21128;50.016;20.002;2024-01-30T08:55:01;65.20;;;39.60;;
34920;SDS011;21128;50.016;20.002;2024-01-30T08:57:28;71.50;;;39.90;;
34920;SDS011;21128;50.016;20.002;2024-01-30T08:59:55;74.30;;;42.10;;
34920;SDS011;21128;50.016;20.002;2024-01-30T09:02:21;76.40;;;40.60;;
34920;SDS011;21128;50.016;20.002;2024-01-30T09:04:48;72.10;;;39.20;;
34920;SDS011;21128;50.016;20.002;2024-01-30T09:07:15;74.10;;;39.70;;
34920;SDS011;21128;50.016;20.002;2024-01-30T09:09:42;64.20;;;37.80;;
34920;SDS011;21128;50.016;20.002;2024-01-30T09:12:09;71.90;;;41.30;;
34920;SDS011;21128;50.016;20.002;2024-01-30T09:14:38;66.50;;;37.90;;
34920;SDS011;21128;50.016;20.002;2024-01-30T09:17:06;66.80;;;39.80;;
34920;SDS011;21128;50.016;20.002;2024-01-30T09:19:33;70.70;;;38.90;;
34920;SDS011;21128;50.016;20.002;2024-01-30T09:22:00;71.10;;;40.90;;
34920;SDS011;21128;50.016;20.002;2024-01-30T09:24:27;66.90;;;40.40;;
34920;SDS011;21128;50.016;20.002;2024-01-30T09:26:54;65.20;;;39.40;;
34920;SDS011;21128;50.016;20.002;2024-01-30T09:29:21;68.60;;;40.20;;
34920;SDS011;21128;50.016;20.002;2024-01-30T09:31:48;69.30;;;40.80;;
34920;SDS011;21128;50.016;20.002;2024-01-30T09:34:14;70.20;;;40.20;;
34920;SDS011;21128;50.016;20.002;2024-01-30T09:36:41;69.30;;;39.20;;
34920;SDS011;21128;50.016;20.002;2024-01-30T09:39:08;72.30;;;40.60;;
34920;SDS011;21128;50.016;20.002;2024-01-30T09:41:56;72.60;;;40.20;;
34920;SDS011;21128;50.016;20.002;2024-01-30T09:44:31;64.20;;;39.90;;
34920;SDS011;21128;50.016;20.002;2024-01-30T09:47:02;70.20;;;40.50;;
34920;SDS011;21128;50.016;20.002;2024-01-30T09:49:32;69.60;;;40.40;;
34920;SDS011;21128;50.016;20.002;2024-01-30T09:52:00;63.40;;;40.50;;
34920;SDS011;21128;50.016;20.002;2024-01-30T09:54:31;70.80;;;40.50;;
34920;SDS011;21128;50.016;20.002;2024-01-30T09:56:58;70.60;;;39.10;;
34920;SDS011;21128;50.016;20.002;2024-01-30T09:59:25;74.20;;;41.10;;
34920;SDS011;21128;50.016;20.002;2024-01-30T10:01:52;65.90;;;38.90;;
34920;SDS011;21128;50.016;20.002;2024-01-30T10:04:19;68.10;;;40.50;;
34920;SDS011;21128;50.016;20.002;2024-01-30T10:06:46;68.80;;;40.10;;
34920;SDS011;21128;50.016;20.002;2024-01-30T10:09:13;72.70;;;39.70;;
34920;SDS011;21128;50.016;20.002;2024-01-30T10:11:40;74.60;;;39.10;;
34920;SDS011;21128;50.016;20.002;2024-01-30T10:14:07;66.00;;;39.10;;
34920;SDS011;21128;50.016;20.002;2024-01-30T10:16:34;68.30;;;37.70;;
34920;SDS011;21128;50.016;20.002;2024-01-30T10:19:01;67.70;;;39.50;;
34920;SDS011;21128;50.016;20.002;2024-01-30T10:21:29;62.00;;;37.20;;
34920;SDS011;21128;50.016;20.002;2024-01-30T10:23:56;68.10;;;38.80;;
34920;SDS011;21128;50.016;20.002;2024-01-30T10:26:23;69.30;;;40.10;;
34920;SDS011;21128;50.016;20.002;2024-01-30T10:28:50;62.40;;;37.30;;
34920;SDS011;21128;50.016;20.002;2024-01-30T10:31:17;67.50;;;38.50;;
34920;SDS011;21128;50.016;20.002;2024-01-30T10:33:47;70.00;;;37.60;;
34920;SDS011;21128;50.016;20.002;2024-01-30T10:36:14;63.70;;;35.20;;
34920;SDS011;21128;50.016;20.002;2024-01-30T10:38:42;64.20;;;36.50;;
34920;SDS011;21128;50.016;20.002;2024-01-30T10:41:10;59.80;;;33.70;;
34920;SDS011;21128;50.016;20.002;2024-01-30T10:43:41;66.20;;;35.80;;
34920;SDS011;21128;50.016;20.002;2024-01-30T10:46:18;60.00;;;33.50;;
34920;SDS011;21128;50.016;20.002;2024-01-30T10:48:48;58.80;;;33.70;;
34920;SDS011;21128;50.016;20.002;2024-01-30T10:51:17;55.90;;;32.60;;
34920;SDS011;21128;50.016;20.002;2024-01-30T10:53:46;59.10;;;32.80;;
34920;SDS011;21128;50.016;20.002;2024-01-30T10:56:13;50.30;;;29.60;;
34920;SDS011;21128;50.016;20.002;2024-01-30T10:58:42;55.20;;;29.80;;
34920;SDS011;21128;50.016;20.002;2024-01-30T11:01:09;56.80;;;29.00;;
34920;SDS011;21128;50.016;20.002;2024-01-30T11:03:36;52.60;;;29.70;;
34920;SDS011;21128;50.016;20.002;2024-01-30T11:06:04;52.90;;;28.20;;
34920;SDS011;21128;50.016;20.002;2024-01-30T11:08:31;47.70;;;26.60;;
34920;SDS011;21128;50.016;20.002;2024-01-30T11:10:59;48.90;;;26.40;;
34920;SDS011;21128;50.016;20.002;2024-01-30T11:13:26;43.40;;;23.80;;
34920;SDS011;21128;50.016;20.002;2024-01-30T11:15:55;46.80;;;26.20;;
34920;SDS011;21128;50.016;20.002;2024-01-30T11:18:22;46.20;;;26.00;;
34920;SDS011;21128;50.016;20.002;2024-01-30T11:20:50;46.10;;;26.80;;
34920;SDS011;21128;50.016;20.002;2024-01-30T11:23:18;51.80;;;26.30;;
34920;SDS011;21128;50.016;20.002;2024-01-30T11:25:44;44.10;;;25.60;;
34920;SDS011;21128;50.016;20.002;2024-01-30T11:28:15;53.50;;;29.10;;
34920;SDS011;21128;50.016;20.002;2024-01-30T11:30:42;50.20;;;28.50;;
34920;SDS011;21128;50.016;20.002;2024-01-30T11:33:10;48.60;;;27.40;;
34920;SDS011;21128;50.016;20.002;2024-01-30T11:35:39;48.60;;;27.60;;
34920;SDS011;21128;50.016;20.002;2024-01-30T11:38:10;45.70;;;27.00;;
34920;SDS011;21128;50.016;20.002;2024-01-30T11:40:40;50.60;;;28.40;;
34920;SDS011;21128;50.016;20.002;2024-01-30T11:43:07;45.70;;;26.40;;
34920;SDS011;21128;50.016;20.002;2024-01-30T11:45:35;51.30;;;28.80;;
34920;SDS011;21128;50.016;20.002;2024-01-30T11:48:03;50.70;;;25.70;;
34920;SDS011;21128;50.016;20.002;2024-01-30T11:50:31;49.80;;;28.10;;
34920;SDS011;21128;50.016;20.002;2024-01-30T11:53:01;51.00;;;27.00;;
34920;SDS011;21128;50.016;20.002;2024-01-30T11:55:29;51.30;;;26.30;;
34920;SDS011;21128;50.016;20.002;2024-01-30T11:58:00;47.60;;;25.20;;
34920;SDS011;21128;50.016;20.002;2024-01-30T12:00:26;46.30;;;25.40;;
34920;SDS011;21128;50.016;20.002;2024-01-30T12:02:54;44.50;;;25.70;;
34920;SDS011;21128;50.016;20.002;2024-01-30T12:05:25;48.80;;;25.00;;
34920;SDS011;21128;50.016;20.002;2024-01-30T12:07:52;52.20;;;26.80;;
34920;SDS011;21128;50.016;20.002;2024-01-30T12:10:20;49.10;;;26.20;;
34920;SDS011;21128;50.016;20.002;2024-01-30T12:12:48;44.30;;;25.80;;
34920;SDS011;21128;50.016;20.002;2024-01-30T12:15:17;45.90;;;25.50;;
34920;SDS011;21128;50.016;20.002;2024-01-30T12:17:45;45.60;;;25.20;;
34920;SDS011;21128;50.016;20.002;2024-01-30T12:20:12;40.90;;;22.70;;
34920;SDS011;21128;50.016;20.002;2024-01-30T12:22:41;46.30;;;24.30;;
34920;SDS011;21128;50.016;20.002;2024-01-30T12:25:09;44.90;;;25.00;;
34920;SDS011;21128;50.016;20.002;2024-01-30T12:27:36;54.40;;;26.70;;
34920;SDS011;21128;50.016;20.002;2024-01-30T12:30:07;50.30;;;27.20;;
34920;SDS011;21128;50.016;20.002;2024-01-30T12:32:35;51.10;;;26.50;;
34920;SDS011;21128;50.016;20.002;2024-01-30T12:35:02;51.00;;;27.00;;
34920;SDS011;21128;50.016;20.002;2024-01-30T12:37:30;47.40;;;27.60;;
34920;SDS011;21128;50.016;20.002;2024-01-30T12:39:57;51.10;;;26.70;;
34920;SDS011;21128;50.016;20.002;2024-01-30T12:42:24;51.10;;;27.50;;
34920;SDS011;21128;50.016;20.002;2024-01-30T12:44:53;46.80;;;25.10;;
34920;SDS011;21128;50.016;20.002;2024-01-30T12:47:23;44.40;;;24.70;;
34920;SDS011;21128;50.016;20.002;2024-01-30T12:49:50;52.10;;;28.80;;
34920;SDS011;21128;50.016;20.002;2024-01-30T12:52:21;52.10;;;30.80;;
34920;SDS011;21128;50.016;20.002;2024-01-30T12:54:49;54.30;;;30.80;;
34920;SDS011;21128;50.016;20.002;2024-01-30T12:57:16;56.80;;;31.00;;
34920;SDS011;21128;50.016;20.002;2024-01-30T12:59:43;50.80;;;30.00;;
34920;SDS011;21128;50.016;20.002;2024-01-30T13:02:12;65.00;;;29.70;;
34920;SDS011;21128;50.016;20.002;2024-01-30T13:04:40;60.60;;;33.80;;
34920;SDS011;21128;50.016;20.002;2024-01-30T13:07:07;62.20;;;33.10;;
34920;SDS011;21128;50.016;20.002;2024-01-30T13:09:34;68.70;;;32.70;;
34920;SDS011;21128;50.016;20.002;2024-01-30T13:12:01;61.00;;;33.50;;
34920;SDS011;21128;50.016;20.002;2024-01-30T13:14:28;64.40;;;34.40;;
34920;SDS011;21128;50.016;20.002;2024-01-30T13:16:55;67.90;;;36.40;;
34920;SDS011;21128;50.016;20.002;2024-01-30T13:19:22;72.30;;;37.30;;
34920;SDS011;21128;50.016;20.002;2024-01-30T13:21:48;75.90;;;37.20;;
34920;SDS011;21128;50.016;20.002;2024-01-30T13:24:15;60.50;;;35.40;;
34920;SDS011;21128;50.016;20.002;2024-01-30T13:26:42;64.60;;;35.40;;
34920;SDS011;21128;50.016;20.002;2024-01-30T13:29:10;75.10;;;35.30;;
34920;SDS011;21128;50.016;20.002;2024-01-30T13:31:37;67.40;;;34.50;;
34920;SDS011;21128;50.016;20.002;2024-01-30T13:34:04;63.10;;;35.10;;
34920;SDS011;21128;50.016;20.002;2024-01-30T13:36:30;65.10;;;35.00;;
34920;SDS011;21128;50.016;20.002;2024-01-30T13:38:57;65.40;;;35.60;;
34920;SDS011;21128;50.016;20.002;2024-01-30T13:41:24;67.40;;;37.30;;
34920;SDS011;21128;50.016;20.002;2024-01-30T13:43:51;70.90;;;36.80;;
34920;SDS011;21128;50.016;20.002;2024-01-30T13:46:17;74.40;;;37.30;;
34920;SDS011;21128;50.016;20.002;2024-01-30T13:48:44;68.70;;;36.90;;
34920;SDS011;21128;50.016;20.002;2024-01-30T13:51:11;68.50;;;36.80;;
34920;SDS011;21128;50.016;20.002;2024-01-30T13:53:39;59.00;;;34.20;;
34920;SDS011;21128;50.016;20.002;2024-01-30T13:56:06;62.50;;;35.10;;
34920;SDS011;21128;50.016;20.002;2024-01-30T13:58:33;61.20;;;35.60;;
34920;SDS011;21128;50.016;20.002;2024-01-30T14:01:02;65.10;;;35.50;;
34920;SDS011;21128;50.016;20.002;2024-01-30T14:03:29;72.10;;;36.40;;
34920;SDS011;21128;50.016;20.002;2024-01-30T14:05:56;67.50;;;35.40;;
34920;SDS011;21128;50.016;20.002;2024-01-30T14:08:23;66.20;;;34.60;;